Time;durP1;ratioP1;P1;durP2;ratioP2;P2;SDS_P1;SDS_P2;PMS_P1;PMS_P2;Temp;Humidity;BMP_temperature;BMP_pressure;BME280_temperature;BME280_humidity;BME280_pressure;Samples;Min_cycle;Max_cycle;Signal;HPM_P1;HPM_P2
2024/01/06 00:00:08;;;;;;;9.33;8.07;;;;;;;;;;5035711;28;20472;-79
2024/01/06 00:02:34;;;;;;;8.73;7.50;;;;;;;;;;5036989;28;20959;-79
2024/01/06 00:05:00;;;;;;;9.00;6.90;;;;;;;;;;5036600;28;20522;-79
2024/01/06 00:07:28;;;;;;;9.80;7.77;;;;;;;;;;5036429;28;20524;-79
2024/01/06 00:09:55;;;;;;;8.20;7.00;;;;;;;;;;5035892;28;20536;-79
2024/01/06 00:12:21;;;;;;;9.90;7.73;;;;;;;;;;5036159;28;20535;-79
2024/01/06 00:14:48;;;;;;;11.70;7.70;;;;;;;;;;5035687;28;20656;-79
2024/01/06 00:17:15;;;;;;;9.60;8.60;;;;;;;;;;5036583;28;20522;-79
2024/01/06 00:19:41;;;;;;;9.00;7.50;;;;;;;;;;5035640;28;21037;-79
2024/01/06 00:22:07;;;;;;;8.70;6.77;;;;;;;;;;5036684;28;20513;-79
2024/01/06 00:24:36;;;;;;;10.00;7.60;;;;;;;;;;5036280;28;20916;-79
2024/01/06 00:27:02;;;;;;;9.90;7.90;;;;;;;;;;5036656;28;20447;-79
2024/01/06 00:29:28;;;;;;;9.73;8.07;;;;;;;;;;5035798;28;20552;-79
2024/01/06 00:31:55;;;;;;;9.93;7.27;;;;;;;;;;5036363;28;20479;-79
2024/01/06 00:34:21;;;;;;;12.37;7.50;;;;;;;;;;5035370;28;21058;-79
2024/01/06 00:36:48;;;;;;;8.70;7.20;;;;;;;;;;5035849;28;20523;-79
2024/01/06 00:39:14;;;;;;;7.70;6.37;;;;;;;;;;5034923;28;20560;-79
2024/01/06 00:41:42;;;;;;;11.57;8.20;;;;;;;;;;5035561;28;20516;-79
2024/01/06 00:44:08;;;;;;;10.10;8.03;;;;;;;;;;5035113;28;20531;-79
2024/01/06 00:46:35;;;;;;;8.70;7.20;;;;;;;;;;5035330;28;20468;-79
2024/01/06 00:49:01;;;;;;;11.53;7.57;;;;;;;;;;5034577;28;21065;-79
2024/01/06 00:51:28;;;;;;;8.13;7.13;;;;;;;;;;5035437;28;20881;-79
2024/01/06 00:53:54;;;;;;;11.03;8.33;;;;;;;;;;5034748;28;21085;-79
2024/01/06 00:56:21;;;;;;;9.43;6.20;;;;;;;;;;5034935;28;20875;-79
2024/01/06 00:58:49;;;;;;;9.87;8.10;;;;;;;;;;5034857;28;20548;-79
2024/01/06 01:01:15;;;;;;;8.70;7.63;;;;;;;;;;5035449;28;20531;-79
2024/01/06 01:03:43;;;;;;;9.93;7.43;;;;;;;;;;5034627;28;20874;-79
2024/01/06 01:06:09;;;;;;;10.47;8.13;;;;;;;;;;5034918;28;21014;-79
2024/01/06 01:08:36;;;;;;;9.57;7.37;;;;;;;;;;5034833;28;21041;-79
2024/01/06 01:11:02;;;;;;;8.83;7.00;;;;;;;;;;5035366;28;20527;-79
2024/01/06 01:13:28;;;;;;;10.93;8.40;;;;;;;;;;5034640;28;20489;-80
2024/01/06 01:15:56;;;;;;;9.87;7.40;;;;;;;;;;5034926;28;21042;-79
2024/01/06 01:18:23;;;;;;;10.00;6.93;;;;;;;;;;5034984;28;20567;-79
2024/01/06 01:20:49;;;;;;;9.20;7.53;;;;;;;;;;5035116;28;20986;-79
2024/01/06 01:23:16;;;;;;;9.73;7.37;;;;;;;;;;5034679;28;20484;-80
2024/01/06 01:25:42;;;;;;;8.80;7.23;;;;;;;;;;5034923;28;20517;-79
2024/01/06 01:28:09;;;;;;;9.33;7.60;;;;;;;;;;5035385;28;20532;-81
2024/01/06 01:30:35;;;;;;;8.90;6.60;;;;;;;;;;5038634;28;20440;-79
2024/01/06 01:33:03;;;;;;;9.50;6.70;;;;;;;;;;5038753;28;20519;-79
2024/01/06 01:35:29;;;;;;;8.80;7.47;;;;;;;;;;5038412;28;20543;-79
2024/01/06 01:37:56;;;;;;;9.37;6.30;;;;;;;;;;5038924;28;20516;-79
2024/01/06 01:40:22;;;;;;;10.63;7.63;;;;;;;;;;5038595;28;20567;-79
2024/01/06 01:42:49;;;;;;;8.93;6.83;;;;;;;;;;5039507;28;20536;-79
2024/01/06 01:45:15;;;;;;;9.37;7.17;;;;;;;;;;5038513;28;20563;-79
2024/01/06 01:47:42;;;;;;;8.33;6.80;;;;;;;;;;5038637;28;21006;-79
2024/01/06 01:50:11;;;;;;;10.70;7.00;;;;;;;;;;5038465;28;20519;-79
2024/01/06 01:52:38;;;;;;;7.50;6.20;;;;;;;;;;5038529;28;20468;-79
2024/01/06 01:55:04;;;;;;;9.57;6.47;;;;;;;;;;5038200;28;20480;-79
2024/01/06 01:57:31;;;;;;;7.97;6.20;;;;;;;;;;5038313;28;20539;-79
2024/01/06 01:59:57;;;;;;;7.73;6.63;;;;;;;;;;5038384;28;21036;-79
2024/01/06 02:02:24;;;;;;;8.70;6.80;;;;;;;;;;5038322;28;20536;-79
2024/01/06 02:04:50;;;;;;;8.00;7.20;;;;;;;;;;5037679;28;20572;-79
2024/01/06 02:07:18;;;;;;;7.67;5.67;;;;;;;;;;5038476;28;20448;-79
2024/01/06 02:09:45;;;;;;;7.57;6.73;;;;;;;;;;5037290;28;20560;-79
2024/01/06 02:12:11;;;;;;;9.67;6.67;;;;;;;;;;5038071;28;20476;-79
2024/01/06 02:14:38;;;;;;;7.90;7.10;;;;;;;;;;5037510;28;20598;-79
2024/01/06 02:17:04;;;;;;;8.43;7.63;;;;;;;;;;5037865;28;20529;-79
2024/01/06 02:19:30;;;;;;;8.33;7.03;;;;;;;;;;5037444;28;20544;-79
2024/01/06 02:21:58;;;;;;;7.10;6.10;;;;;;;;;;5037749;28;20528;-79
2024/01/06 02:24:25;;;;;;;12.83;7.60;;;;;;;;;;5037504;28;20492;-79
2024/01/06 02:26:51;;;;;;;10.57;7.20;;;;;;;;;;5037867;28;20481;-79
2024/01/06 02:29:17;;;;;;;11.47;7.00;;;;;;;;;;5037581;28;20551;-79
2024/01/06 02:31:44;;;;;;;10.90;7.90;;;;;;;;;;5038393;28;20524;-79
2024/01/06 02:34:10;;;;;;;9.50;7.37;;;;;;;;;;5037577;28;20508;-79
2024/01/06 02:36:37;;;;;;;9.10;6.67;;;;;;;;;;5038200;28;21004;-79
2024/01/06 02:39:04;;;;;;;9.23;7.40;;;;;;;;;;5037612;28;20565;-79
2024/01/06 02:41:31;;;;;;;8.40;6.70;;;;;;;;;;5037721;28;20536;-79
2024/01/06 02:43:57;;;;;;;8.77;6.63;;;;;;;;;;5038522;28;20903;-79
2024/01/06 02:46:24;;;;;;;8.80;6.70;;;;;;;;;;5038039;28;20491;-79
2024/01/06 02:48:50;;;;;;;7.63;6.03;;;;;;;;;;5037867;28;20460;-79
2024/01/06 02:51:17;;;;;;;7.73;6.27;;;;;;;;;;5037961;28;20528;-79
2024/01/06 02:53:43;;;;;;;8.80;6.30;;;;;;;;;;5037225;28;21050;-79
2024/01/06 02:56:14;;;;;;;8.03;6.33;;;;;;;;;;5038159;28;20531;-79
2024/01/06 02:58:40;;;;;;;7.90;6.70;;;;;;;;;;5037241;28;20551;-80
2024/01/06 03:01:06;;;;;;;7.63;6.90;;;;;;;;;;5037558;28;20468;-79
2024/01/06 03:03:33;;;;;;;8.97;7.20;;;;;;;;;;5037098;28;20548;-80
2024/01/06 03:05:59;;;;;;;7.17;5.87;;;;;;;;;;5037303;28;20551;-79
2024/01/06 03:08:26;;;;;;;8.53;6.33;;;;;;;;;;5036780;28;20837;-80
2024/01/06 03:10:53;;;;;;;7.43;5.47;;;;;;;;;;5036930;28;20973;-79
2024/01/06 03:13:21;;;;;;;11.03;6.37;;;;;;;;;;5036458;28;20488;-79
2024/01/06 03:15:47;;;;;;;8.03;6.37;;;;;;;;;;5036973;28;20497;-79
2024/01/06 03:18:14;;;;;;;10.17;6.30;;;;;;;;;;5036298;28;21040;-80
2024/01/06 03:20:40;;;;;;;9.10;6.00;;;;;;;;;;5036274;28;21108;-79
2024/01/06 03:23:07;;;;;;;8.73;6.37;;;;;;;;;;5036844;28;20966;-81
2024/01/06 03:25:33;;;;;;;8.77;6.20;;;;;;;;;;5036958;28;20817;-79
2024/01/06 03:28:00;;;;;;;8.70;6.80;;;;;;;;;;5036859;28;20479;-79
2024/01/06 03:30:27;;;;;;;10.23;6.80;;;;;;;;;;5036032;28;20914;-79
2024/01/06 03:32:54;;;;;;;9.00;6.67;;;;;;;;;;5036571;28;21026;-79
2024/01/06 03:35:20;;;;;;;9.03;7.23;;;;;;;;;;5035935;28;20593;-79
2024/01/06 03:37:47;;;;;;;9.10;7.10;;;;;;;;;;5036925;28;20907;-79
2024/01/06 03:40:13;;;;;;;7.90;6.37;;;;;;;;;;5036315;28;20854;-79
2024/01/06 03:42:40;;;;;;;9.60;7.40;;;;;;;;;;5036917;28;20469;-79
2024/01/06 03:45:07;;;;;;;7.57;6.27;;;;;;;;;;5036207;28;20890;-79
2024/01/06 03:47:34;;;;;;;8.60;6.40;;;;;;;;;;5036815;28;20469;-79
2024/01/06 03:50:01;;;;;;;8.17;6.10;;;;;;;;;;5036231;28;20891;-79
2024/01/06 03:52:28;;;;;;;10.20;6.57;;;;;;;;;;5036147;28;20874;-79
2024/01/06 03:54:54;;;;;;;10.13;7.00;;;;;;;;;;5035229;28;21050;-79
2024/01/06 03:57:20;;;;;;;8.20;5.53;;;;;;;;;;5035878;28;20858;-79
2024/01/06 03:59:47;;;;;;;9.50;6.80;;;;;;;;;;5035107;28;20584;-79
2024/01/06 04:02:13;;;;;;;8.93;6.40;;;;;;;;;;5035739;28;20527;-79
2024/01/06 04:04:41;;;;;;;8.87;7.70;;;;;;;;;;5035102;28;20564;-79
2024/01/06 04:07:08;;;;;;;9.07;6.60;;;;;;;;;;5035753;28;20433;-79
2024/01/06 04:09:34;;;;;;;9.90;6.30;;;;;;;;;;5035341;28;20477;-79
2024/01/06 04:12:01;;;;;;;10.87;7.67;;;;;;;;;;5035252;28;20512;-79
2024/01/06 04:14:28;;;;;;;8.23;6.73;;;;;;;;;;5035201;28;20899;-79
2024/01/06 04:16:56;;;;;;;8.97;6.90;;;;;;;;;;5035894;28;20479;-79
2024/01/06 04:19:22;;;;;;;8.00;7.00;;;;;;;;;;5035203;28;20486;-79
2024/01/06 04:21:50;;;;;;;10.33;8.13;;;;;;;;;;5035513;28;20524;-79
2024/01/06 04:24:17;;;;;;;8.13;6.63;;;;;;;;;;5035021;28;20560;-79
2024/01/06 04:26:44;;;;;;;7.10;6.40;;;;;;;;;;5035543;28;20528;-79
2024/01/06 04:29:11;;;;;;;8.63;6.57;;;;;;;;;;5034917;28;20476;-80
2024/01/06 04:31:38;;;;;;;12.03;7.30;;;;;;;;;;5034904;28;20432;-80
2024/01/06 04:34:04;;;;;;;9.60;7.20;;;;;;;;;;5034932;28;20548;-80
2024/01/06 04:36:31;;;;;;;8.20;5.97;;;;;;;;;;5034942;28;20531;-79
2024/01/06 04:38:58;;;;;;;10.70;8.10;;;;;;;;;;5034837;28;21070;-79
2024/01/06 04:41:25;;;;;;;7.07;6.37;;;;;;;;;;5034985;28;20912;-79
2024/01/06 04:43:51;;;;;;;11.90;8.30;;;;;;;;;;5034460;28;20560;-80
2024/01/06 04:46:18;;;;;;;9.43;7.37;;;;;;;;;;5035185;28;20514;-79
2024/01/06 04:48:44;;;;;;;7.97;7.03;;;;;;;;;;5034570;28;20552;-79
2024/01/06 04:51:11;;;;;;;11.50;7.67;;;;;;;;;;5034627;28;20999;-79
2024/01/06 04:53:37;;;;;;;11.50;8.10;;;;;;;;;;5033951;28;20547;-80
2024/01/06 04:56:05;;;;;;;7.80;6.97;;;;;;;;;;5035029;28;20500;-79
2024/01/06 04:58:32;;;;;;;9.67;8.10;;;;;;;;;;5034028;28;21058;-79
2024/01/06 05:00:58;;;;;;;9.67;7.93;;;;;;;;;;5034976;28;20583;-79
2024/01/06 05:03:25;;;;;;;9.47;7.87;;;;;;;;;;5033295;28;20527;-80
2024/01/06 05:05:51;;;;;;;9.73;6.87;;;;;;;;;;5034597;28;21030;-79
2024/01/06 05:08:18;;;;;;;11.63;8.10;;;;;;;;;;5034572;28;20540;-80
2024/01/06 05:10:46;;;;;;;9.10;7.17;;;;;;;;;;5034640;28;20441;-79
2024/01/06 05:13:14;;;;;;;9.13;6.60;;;;;;;;;;5034708;28;20445;-80
2024/01/06 05:15:40;;;;;;;10.77;7.40;;;;;;;;;;5034385;28;20552;-79
2024/01/06 05:18:07;;;;;;;11.63;8.30;;;;;;;;;;5034186;28;20528;-81
2024/01/06 05:20:33;;;;;;;11.67;8.47;;;;;;;;;;5034742;28;20567;-79
2024/01/06 05:23:00;;;;;;;12.63;7.93;;;;;;;;;;5034830;28;20472;-79
2024/01/06 05:25:26;;;;;;;10.10;7.90;;;;;;;;;;5033605;28;21002;-79
2024/01/06 05:27:53;;;;;;;11.60;7.70;;;;;;;;;;5035049;28;21002;-79
2024/01/06 05:30:20;;;;;;;8.70;7.10;;;;;;;;;;5033531;28;20920;-79
2024/01/06 05:32:47;;;;;;;8.80;7.23;;;;;;;;;;5034517;28;20525;-79
2024/01/06 05:35:13;;;;;;;9.67;8.00;;;;;;;;;;5033658;28;21061;-79
2024/01/06 05:37:40;;;;;;;12.13;8.70;;;;;;;;;;5034437;28;21005;-79
2024/01/06 05:40:07;;;;;;;10.13;8.07;;;;;;;;;;5033956;28;20567;-80
2024/01/06 05:42:34;;;;;;;10.13;9.10;;;;;;;;;;5034005;28;21018;-79
2024/01/06 05:45:01;;;;;;;9.43;7.53;;;;;;;;;;5033566;28;21010;-79
2024/01/06 05:47:28;;;;;;;12.20;8.10;;;;;;;;;;5033966;28;20963;-79
2024/01/06 05:49:55;;;;;;;10.70;7.97;;;;;;;;;;5033577;28;20877;-79
2024/01/06 05:52:21;;;;;;;11.10;7.60;;;;;;;;;;5034493;28;20531;-79
2024/01/06 05:54:48;;;;;;;12.40;9.43;;;;;;;;;;5033236;28;21042;-79
2024/01/06 05:57:14;;;;;;;11.73;9.23;;;;;;;;;;5034785;28;20440;-79
2024/01/06 05:59:41;;;;;;;12.70;8.93;;;;;;;;;;5034072;28;20469;-79
2024/01/06 06:02:08;;;;;;;12.37;9.30;;;;;;;;;;5034509;28;20443;-79
2024/01/06 06:04:35;;;;;;;9.40;8.17;;;;;;;;;;5034021;28;20568;-79
2024/01/06 06:07:02;;;;;;;12.90;10.10;;;;;;;;;;5034229;28;20508;-79
2024/01/06 06:09:29;;;;;;;12.20;9.10;;;;;;;;;;5033382;28;20479;-79
2024/01/06 06:11:55;;;;;;;12.70;8.90;;;;;;;;;;5034306;28;20452;-79
2024/01/06 06:14:22;;;;;;;10.90;9.03;;;;;;;;;;5034819;28;20564;-79
2024/01/06 06:16:48;;;;;;;15.00;10.33;;;;;;;;;;5037385;28;20475;-79
2024/01/06 06:19:15;;;;;;;13.07;9.20;;;;;;;;;;5037330;28;20917;-79
2024/01/06 06:21:43;;;;;;;13.20;9.80;;;;;;;;;;5037763;28;20571;-78
2024/01/06 06:24:09;;;;;;;15.63;11.43;;;;;;;;;;5037362;28;20480;-78
2024/01/06 06:26:36;;;;;;;13.23;10.07;;;;;;;;;;5037241;28;20510;-79
2024/01/06 06:29:03;;;;;;;12.03;9.00;;;;;;;;;;5037481;28;20469;-79
2024/01/06 06:31:29;;;;;;;13.60;10.20;;;;;;;;;;5038169;28;20460;-79
2024/01/06 06:33:56;;;;;;;12.83;10.90;;;;;;;;;;5037010;28;20914;-79
2024/01/06 06:36:22;;;;;;;15.40;10.40;;;;;;;;;;5038034;28;20531;-79
2024/01/06 06:38:50;;;;;;;13.73;10.80;;;;;;;;;;5037420;28;20553;-79
2024/01/06 06:41:17;;;;;;;14.60;10.87;;;;;;;;;;5037624;28;20923;-79
2024/01/06 06:43:43;;;;;;;13.90;10.40;;;;;;;;;;5036598;28;20476;-79
2024/01/06 06:46:09;;;;;;;17.47;11.83;;;;;;;;;;5037717;28;20469;-78
2024/01/06 06:48:36;;;;;;;18.13;10.80;;;;;;;;;;5036978;28;20552;-80
2024/01/06 06:51:03;;;;;;;13.30;10.30;;;;;;;;;;5037551;28;20429;-78
2024/01/06 06:53:29;;;;;;;11.37;9.13;;;;;;;;;;5037005;28;20994;-79
2024/01/06 06:55:57;;;;;;;13.43;10.23;;;;;;;;;;5037250;28;20904;-79
2024/01/06 06:58:23;;;;;;;18.40;11.50;;;;;;;;;;5036726;28;20880;-80
2024/01/06 07:00:50;;;;;;;12.50;10.40;;;;;;;;;;5037063;28;20548;-78
2024/01/06 07:03:16;;;;;;;14.10;9.87;;;;;;;;;;5037093;28;20527;-79
2024/01/06 07:05:43;;;;;;;14.20;10.70;;;;;;;;;;5036925;28;20872;-79
2024/01/06 07:08:09;;;;;;;13.30;11.00;;;;;;;;;;5036470;28;20987;-80
2024/01/06 07:10:36;;;;;;;15.30;11.53;;;;;;;;;;5037230;28;20469;-79
2024/01/06 07:13:03;;;;;;;15.00;10.20;;;;;;;;;;5036860;28;20895;-78
2024/01/06 07:15:30;;;;;;;15.03;10.70;;;;;;;;;;5036453;28;20568;-79
2024/01/06 07:17:56;;;;;;;12.50;9.73;;;;;;;;;;5037051;28;20516;-79
2024/01/06 07:20:23;;;;;;;12.87;9.63;;;;;;;;;;5036202;28;21070;-79
2024/01/06 07:22:49;;;;;;;14.20;10.70;;;;;;;;;;5037044;28;20528;-79
2024/01/06 07:25:16;;;;;;;14.67;12.30;;;;;;;;;;5035724;28;20512;-79
2024/01/06 07:27:42;;;;;;;12.00;9.47;;;;;;;;;;5035821;28;20957;-79
2024/01/06 07:30:11;;;;;;;18.00;11.77;;;;;;;;;;5035899;28;20507;-79
2024/01/06 07:32:37;;;;;;;17.20;11.40;;;;;;;;;;5036638;28;20473;-79
2024/01/06 07:35:04;;;;;;;17.03;10.73;;;;;;;;;;5036248;28;20556;-79
2024/01/06 07:37:30;;;;;;;19.80;11.70;;;;;;;;;;5036235;28;20468;-79
2024/01/06 07:39:56;;;;;;;16.43;11.50;;;;;;;;;;5035906;28;20556;-79
2024/01/06 07:42:23;;;;;;;18.27;11.60;;;;;;;;;;5036219;28;20928;-79
2024/01/06 07:44:49;;;;;;;14.33;11.20;;;;;;;;;;5035464;28;21058;-79
2024/01/06 07:47:17;;;;;;;15.63;12.23;;;;;;;;;;5036091;28;20519;-79
2024/01/06 07:49:44;;;;;;;15.23;11.63;;;;;;;;;;5035928;28;20555;-79
2024/01/06 07:52:10;;;;;;;13.83;11.40;;;;;;;;;;5035907;28;21006;-79
2024/01/06 07:54:36;;;;;;;13.80;10.47;;;;;;;;;;5035056;28;20500;-79
2024/01/06 07:57:03;;;;;;;15.73;11.57;;;;;;;;;;5035629;28;20535;-79
2024/01/06 07:59:29;;;;;;;17.50;11.83;;;;;;;;;;5034895;28;21057;-79
2024/01/06 08:01:56;;;;;;;16.27;11.20;;;;;;;;;;5034231;28;20919;-79
2024/01/06 08:04:24;;;;;;;15.67;12.40;;;;;;;;;;5034935;28;21058;-79
2024/01/06 08:06:50;;;;;;;17.33;12.60;;;;;;;;;;5035425;28;20476;-79
2024/01/06 08:09:17;;;;;;;20.03;13.50;;;;;;;;;;5035355;28;20465;-79
2024/01/06 08:11:45;;;;;;;15.17;12.10;;;;;;;;;;5035508;28;20883;-79
2024/01/06 08:14:12;;;;;;;15.23;11.37;;;;;;;;;;5034546;28;20508;-79
2024/01/06 08:16:39;;;;;;;16.03;11.00;;;;;;;;;;5035260;28;20828;-79
2024/01/06 08:19:05;;;;;;;18.87;13.50;;;;;;;;;;5034921;28;20547;-79
2024/01/06 08:21:34;;;;;;;18.57;12.17;;;;;;;;;;5034803;28;20575;-79
2024/01/06 08:24:01;;;;;;;20.87;12.90;;;;;;;;;;5034157;28;20990;-79
2024/01/06 08:26:27;;;;;;;19.37;13.40;;;;;;;;;;5034933;28;20536;-79
2024/01/06 08:28:54;;;;;;;19.93;12.43;;;;;;;;;;5034470;28;21014;-79
2024/01/06 08:31:20;;;;;;;16.70;12.23;;;;;;;;;;5035233;28;20448;-79
2024/01/06 08:33:46;;;;;;;21.90;13.00;;;;;;;;;;5034692;28;20564;-79
2024/01/06 08:36:13;;;;;;;19.50;13.57;;;;;;;;;;5034409;28;20549;-79
2024/01/06 08:38:41;;;;;;;23.20;14.77;;;;;;;;;;5032879;28;20998;-79
2024/01/06 08:41:07;;;;;;;19.63;12.67;;;;;;;;;;5034418;28;20564;-79
2024/01/06 08:43:34;;;;;;;23.50;15.73;;;;;;;;;;5034075;28;20555;-79
2024/01/06 08:46:02;;;;;;;21.40;15.07;;;;;;;;;;5034214;28;20901;-79
2024/01/06 08:48:28;;;;;;;21.20;14.20;;;;;;;;;;5034123;28;20548;-79
2024/01/06 08:50:54;;;;;;;23.50;16.07;;;;;;;;;;5034452;28;20536;-79
2024/01/06 08:53:21;;;;;;;27.73;15.23;;;;;;;;;;5034067;28;20528;-80
2024/01/06 08:55:49;;;;;;;17.80;13.13;;;;;;;;;;5034261;28;21038;-79
2024/01/06 08:58:18;;;;;;;22.90;14.30;;;;;;;;;;5034144;28;20535;-79
2024/01/06 09:00:45;;;;;;;19.87;13.30;;;;;;;;;;5034631;28;20516;-79
2024/01/06 09:03:12;;;;;;;18.37;13.57;;;;;;;;;;5033786;28;20532;-81
2024/01/06 09:05:38;;;;;;;17.67;12.67;;;;;;;;;;5033969;28;20510;-79
2024/01/06 09:08:05;;;;;;;18.27;13.40;;;;;;;;;;5033948;28;20536;-79
2024/01/06 09:10:32;;;;;;;20.43;14.63;;;;;;;;;;5034296;28;20461;-80
2024/01/06 09:13:01;;;;;;;17.47;12.63;;;;;;;;;;5034147;28;20484;-79
2024/01/06 09:15:27;;;;;;;18.90;13.60;;;;;;;;;;5033501;28;20487;-79
2024/01/06 09:17:54;;;;;;;18.83;13.80;;;;;;;;;;5034004;28;20531;-80
2024/01/06 09:20:22;;;;;;;24.10;15.20;;;;;;;;;;5034993;28;20531;-78
2024/01/06 09:22:49;;;;;;;20.50;14.27;;;;;;;;;;5034090;28;20485;-78
2024/01/06 09:25:15;;;;;;;20.13;14.57;;;;;;;;;;5033475;28;20551;-78
2024/01/06 09:27:42;;;;;;;20.20;14.17;;;;;;;;;;5034167;28;20523;-78
2024/01/06 09:30:10;;;;;;;17.20;12.20;;;;;;;;;;5033385;28;20557;-78
2024/01/06 09:32:37;;;;;;;17.87;12.90;;;;;;;;;;5033786;28;20552;-78
2024/01/06 09:35:03;;;;;;;19.10;13.37;;;;;;;;;;5033192;28;20537;-78
2024/01/06 09:37:30;;;;;;;19.93;12.23;;;;;;;;;;5034089;28;20441;-78
2024/01/06 09:39:57;;;;;;;20.67;14.20;;;;;;;;;;5033605;28;20480;-78
2024/01/06 09:42:23;;;;;;;20.50;12.70;;;;;;;;;;5033638;28;20920;-78
2024/01/06 09:44:50;;;;;;;15.77;12.53;;;;;;;;;;5033020;28;20559;-78
2024/01/06 09:47:19;;;;;;;25.00;13.67;;;;;;;;;;5033632;28;20479;-78
2024/01/06 09:49:49;;;;;;;19.80;13.60;;;;;;;;;;5035011;28;21006;-78
2024/01/06 09:52:16;;;;;;;21.43;13.00;;;;;;;;;;5037745;28;20425;-79
2024/01/06 09:54:46;;;;;;;19.50;13.83;;;;;;;;;;5037048;28;20473;-78
2024/01/06 09:57:14;;;;;;;21.43;13.27;;;;;;;;;;5038088;28;20547;-78
2024/01/06 09:59:42;;;;;;;20.60;14.43;;;;;;;;;;5036788;28;20472;-78
2024/01/06 10:02:08;;;;;;;20.80;12.60;;;;;;;;;;5037107;28;20508;-78
2024/01/06 10:04:36;;;;;;;22.50;13.37;;;;;;;;;;5036346;28;20555;-78
2024/01/06 10:07:03;;;;;;;26.93;12.80;;;;;;;;;;5036829;28;20532;-79
2024/01/06 10:09:29;;;;;;;18.73;13.53;;;;;;;;;;5036214;28;20838;-79
2024/01/06 10:11:56;;;;;;;19.70;13.97;;;;;;;;;;5036771;28;20529;-78
2024/01/06 10:14:23;;;;;;;19.93;13.00;;;;;;;;;;5036443;28;20479;-79
2024/01/06 10:16:50;;;;;;;17.47;13.20;;;;;;;;;;5037046;28;20886;-79
2024/01/06 10:19:17;;;;;;;20.50;13.13;;;;;;;;;;5036462;28;21070;-78
2024/01/06 10:21:45;;;;;;;23.73;13.23;;;;;;;;;;5037061;28;20575;-78
2024/01/06 10:24:11;;;;;;;20.43;14.40;;;;;;;;;;5036208;28;21057;-78
2024/01/06 10:26:38;;;;;;;18.57;11.87;;;;;;;;;;5036793;28;20917;-78
2024/01/06 10:29:05;;;;;;;19.43;13.63;;;;;;;;;;5036178;28;20464;-78
2024/01/06 10:31:31;;;;;;;21.93;13.60;;;;;;;;;;5036813;28;20531;-78
2024/01/06 10:33:57;;;;;;;18.73;13.87;;;;;;;;;;5035969;28;20511;-78
2024/01/06 10:36:24;;;;;;;26.40;15.47;;;;;;;;;;5036594;28;20445;-78
2024/01/06 10:38:53;;;;;;;19.87;14.47;;;;;;;;;;5035969;28;20552;-78
2024/01/06 10:41:20;;;;;;;17.83;13.50;;;;;;;;;;5032951;28;20556;-79
2024/01/06 10:43:47;;;;;;;20.30;14.27;;;;;;;;;;5036049;28;20872;-78
2024/01/06 10:46:15;;;;;;;20.67;15.00;;;;;;;;;;5036001;28;21047;-78
2024/01/06 10:48:44;;;;;;;22.90;14.23;;;;;;;;;;5036366;28;20441;-79
2024/01/06 10:51:11;;;;;;;22.03;14.87;;;;;;;;;;5035721;28;20468;-78
2024/01/06 10:53:39;;;;;;;22.27;14.27;;;;;;;;;;5036142;28;20442;-78
2024/01/06 10:56:08;;;;;;;20.33;14.83;;;;;;;;;;5034710;28;20551;-79
2024/01/06 10:58:42;;;;;;;20.20;14.83;;;;;;;;;;5035770;28;20452;-78
2024/01/06 11:01:09;;;;;;;20.00;13.77;;;;;;;;;;5034416;28;20468;-78
2024/01/06 11:03:36;;;;;;;23.03;14.07;;;;;;;;;;5035730;28;20879;-80
2024/01/06 11:06:03;;;;;;;25.40;14.90;;;;;;;;;;5033893;28;20488;-79
2024/01/06 11:08:29;;;;;;;18.90;12.53;;;;;;;;;;5033670;28;20535;-78
2024/01/06 11:10:56;;;;;;;23.53;15.10;;;;;;;;;;5032997;28;20460;-79
2024/01/06 11:13:26;;;;;;;23.17;15.20;;;;;;;;;;5033282;28;20437;-79
2024/01/06 11:15:53;;;;;;;23.33;14.07;;;;;;;;;;5032948;28;20475;-82
2024/01/06 11:18:33;;;;;;;22.00;14.80;;;;;;;;;;5033564;28;20528;-79
2024/01/06 11:21:17;;;;;;;20.90;13.77;;;;;;;;;;5033921;28;20881;-78
2024/01/06 11:23:44;;;;;;;22.43;15.30;;;;;;;;;;5035303;28;20535;-79
2024/01/06 11:26:11;;;;;;;18.77;13.60;;;;;;;;;;5035238;28;20469;-79
2024/01/06 11:28:45;;;;;;;22.37;14.30;;;;;;;;;;5035282;28;21006;-79
2024/01/06 11:31:12;;;;;;;22.90;14.57;;;;;;;;;;5034774;28;20475;-78
2024/01/06 11:33:42;;;;;;;20.33;14.83;;;;;;;;;;5035293;28;20886;-78
2024/01/06 11:36:09;;;;;;;20.47;13.90;;;;;;;;;;5034900;28;21009;-80
2024/01/06 11:38:38;;;;;;;24.13;14.23;;;;;;;;;;5035038;28;20452;-80
2024/01/06 11:41:04;;;;;;;20.93;13.57;;;;;;;;;;5034682;28;21019;-79
2024/01/06 11:43:32;;;;;;;21.27;15.30;;;;;;;;;;5035229;28;20575;-80
2024/01/06 11:46:00;;;;;;;23.67;13.90;;;;;;;;;;5035034;28;20464;-81
2024/01/06 11:48:31;;;;;;;22.40;14.27;;;;;;;;;;5035224;28;20453;-80
2024/01/06 11:50:58;;;;;;;26.37;15.27;;;;;;;;;;5036989;28;20492;-81
2024/01/06 11:53:27;;;;;;;24.90;14.37;;;;;;;;;;5035029;28;20437;-80
2024/01/06 11:55:53;;;;;;;25.20;16.13;;;;;;;;;;5034571;28;20495;-81
2024/01/06 11:58:20;;;;;;;24.33;14.63;;;;;;;;;;5034640;28;21033;-80
2024/01/06 12:00:55;;;;;;;17.57;12.90;;;;;;;;;;5034050;28;21022;-81
2024/01/06 12:03:23;;;;;;;21.40;14.53;;;;;;;;;;5034763;28;20563;-80
2024/01/06 12:05:59;;;;;;;25.90;14.30;;;;;;;;;;5035785;28;20461;-80
2024/01/06 12:08:27;;;;;;;22.90;13.80;;;;;;;;;;5035722;28;20497;-80
2024/01/06 12:11:02;;;;;;;22.20;14.27;;;;;;;;;;5035027;28;20437;-80
2024/01/06 12:13:28;;;;;;;21.67;14.87;;;;;;;;;;5034136;28;20866;-79
2024/01/06 12:15:56;;;;;;;19.23;13.23;;;;;;;;;;5034023;28;20547;-80
2024/01/06 12:18:26;;;;;;;21.70;13.77;;;;;;;;;;5034309;28;20990;-80
2024/01/06 12:20:53;;;;;;;21.90;14.70;;;;;;;;;;5034193;28;20880;-81
2024/01/06 12:23:27;;;;;;;20.53;14.03;;;;;;;;;;5034219;28;20579;-80
2024/01/06 12:25:54;;;;;;;22.10;14.67;;;;;;;;;;5033641;28;20888;-81
2024/01/06 12:28:20;;;;;;;19.77;12.97;;;;;;;;;;5034670;28;20472;-80
2024/01/06 12:30:46;;;;;;;20.27;12.37;;;;;;;;;;5033917;28;20867;-81
2024/01/06 12:33:14;;;;;;;27.17;16.90;;;;;;;;;;5034884;28;21011;-80
2024/01/06 12:35:42;;;;;;;24.03;13.50;;;;;;;;;;5034019;28;20461;-80
2024/01/06 12:38:09;;;;;;;21.93;14.63;;;;;;;;;;5034044;28;20927;-80
2024/01/06 12:40:36;;;;;;;23.77;15.00;;;;;;;;;;5034028;28;20985;-80
2024/01/06 12:43:03;;;;;;;20.87;13.67;;;;;;;;;;5033652;28;20843;-80
2024/01/06 12:45:29;;;;;;;16.90;12.70;;;;;;;;;;5034341;28;20544;-80
2024/01/06 12:47:56;;;;;;;24.80;14.03;;;;;;;;;;5033774;28;20881;-80
2024/01/06 12:50:22;;;;;;;25.37;14.40;;;;;;;;;;5033909;28;20528;-80
2024/01/06 12:52:50;;;;;;;25.63;14.83;;;;;;;;;;5034043;28;21022;-80
2024/01/06 12:55:16;;;;;;;20.27;12.30;;;;;;;;;;5034251;28;20543;-79
2024/01/06 12:57:43;;;;;;;20.60;14.63;;;;;;;;;;5034423;28;20475;-79
2024/01/06 13:00:11;;;;;;;18.87;14.23;;;;;;;;;;5034230;28;20441;-78
2024/01/06 13:02:38;;;;;;;22.10;15.03;;;;;;;;;;5033837;28;20469;-79
2024/01/06 13:05:05;;;;;;;20.57;13.67;;;;;;;;;;5033984;28;20480;-80
2024/01/06 13:07:31;;;;;;;24.73;13.63;;;;;;;;;;5033870;28;20469;-78
2024/01/06 13:09:59;;;;;;;20.97;13.20;;;;;;;;;;5034311;28;20535;-80
2024/01/06 13:12:28;;;;;;;23.73;13.80;;;;;;;;;;5033533;28;20476;-80
2024/01/06 13:14:55;;;;;;;19.17;13.97;;;;;;;;;;5034097;28;20460;-80
2024/01/06 13:17:21;;;;;;;16.30;12.90;;;;;;;;;;5033552;28;20500;-79
2024/01/06 13:19:48;;;;;;;21.00;13.77;;;;;;;;;;5034094;28;20969;-78
2024/01/06 13:22:16;;;;;;;19.33;12.40;;;;;;;;;;5033596;28;20512;-81
2024/01/06 13:24:42;;;;;;;16.70;12.10;;;;;;;;;;5038062;28;20474;-79
2024/01/06 13:27:10;;;;;;;18.40;12.10;;;;;;;;;;5040104;28;20484;-79
2024/01/06 13:29:36;;;;;;;17.80;12.80;;;;;;;;;;5040625;28;20523;-79
2024/01/06 13:32:04;;;;;;;18.23;11.70;;;;;;;;;;5040291;28;20522;-78
2024/01/06 13:34:31;;;;;;;17.73;12.23;;;;;;;;;;5040357;28;20459;-78
2024/01/06 13:36:58;;;;;;;22.97;13.73;;;;;;;;;;5040388;28;20500;-80
2024/01/06 13:39:24;;;;;;;20.20;13.53;;;;;;;;;;5039910;28;20815;-78
2024/01/06 13:41:51;;;;;;;17.30;13.00;;;;;;;;;;5039716;28;20563;-80
2024/01/06 13:44:19;;;;;;;18.33;11.73;;;;;;;;;;5040151;28;20564;-78
2024/01/06 13:46:47;;;;;;;22.60;14.23;;;;;;;;;;5040055;28;20873;-80
2024/01/06 13:49:14;;;;;;;22.57;13.87;;;;;;;;;;5040061;28;20931;-80
2024/01/06 13:51:40;;;;;;;31.40;15.30;;;;;;;;;;5039614;28;20912;-80
2024/01/06 13:54:07;;;;;;;19.67;12.33;;;;;;;;;;5039996;28;20469;-80
2024/01/06 13:56:33;;;;;;;24.77;14.00;;;;;;;;;;5039830;28;20469;-80
2024/01/06 13:59:00;;;;;;;21.57;14.47;;;;;;;;;;5040122;28;20552;-80
2024/01/06 14:01:28;;;;;;;21.23;15.40;;;;;;;;;;5039850;28;20487;-80
2024/01/06 14:03:57;;;;;;;21.63;13.40;;;;;;;;;;5039801;28;20912;-79
2024/01/06 14:06:24;;;;;;;21.93;12.60;;;;;;;;;;5039738;28;20464;-80
2024/01/06 14:08:52;;;;;;;22.03;13.30;;;;;;;;;;5039966;28;20471;-78
2024/01/06 14:11:18;;;;;;;20.70;12.87;;;;;;;;;;5039849;28;20464;-80
2024/01/06 14:13:48;;;;;;;20.97;13.57;;;;;;;;;;5040024;28;20523;-80
2024/01/06 14:16:14;;;;;;;23.53;14.50;;;;;;;;;;5039995;28;20551;-80
2024/01/06 14:18:42;;;;;;;24.10;15.43;;;;;;;;;;5040069;28;20548;-79
2024/01/06 14:21:10;;;;;;;20.00;13.17;;;;;;;;;;5039713;28;20830;-81
2024/01/06 14:23:36;;;;;;;18.80;13.37;;;;;;;;;;5040270;28;20547;-79